CSM8 weather

Sept-Îles/Lac Des Rapides Seaplane Base
Quebec, Canada

Public forecast

Using degrees Celsius for public forecast. Weather courtesy of forecast.io.

Closest aviation weather report (METAR) to Sept-Îles/Lac Des Rapides Seaplane Base

Closest report is Sept-Îles Airport, 7.3 nm (13.6 km) SE. Retrieved 2020/07/10 12:00 UTC (13 minutes ago):

CYZV 101200Z 11004KT 1/2SM R09/4000VP6000FT/D FG VV002 15/15 A3009 RMK FG8 SLP193

Closest aviation forecast (TAF) to Sept-Îles/Lac Des Rapides Seaplane Base

Closest forecast is Sept-Îles Airport, 7.3 nm (13.6 km) SE. Retrieved 2020/07/10 12:42 UTC (0 seconds ago):

TAF CYZV 101139Z 1012/1112 09005KT 1/2SM FG VV002 BECMG 1012/1014 6SM BR OVC006 FM101400 10012KT P6SM SCT008 BKN060 TEMPO 1014/1015 2SM BR BKN008 FM101500 11012KT P6SM FEW015 BKN060 TEMPO 1015/1018 BKN015 OVC060 FM102100 09012KT P6SM SCT007 BKN030 BKN120 FM110100 08007KT 4SM BR BKN006 FM110300 07008KT 2SM BR BKN002 FM111000 09010KT 6SM BR BKN010 RMK NXT FCST BY 101800Z